sensor_id;sensor_type;location;lat;lon;timestamp;pressure;altitude;pressure_sealevel;temperature;humidity
77207;BME280;66190;50.708;7.906;2024-03-17T00:02:00;97031.53;;;6.20;85.89
77207;BME280;66190;50.708;7.906;2024-03-17T00:04:26;97032.66;;;6.17;85.87
77207;BME280;66190;50.708;7.906;2024-03-17T00:06:52;97031.84;;;6.17;86.04
77207;BME280;66190;50.708;7.906;2024-03-17T00:09:18;97028.84;;;6.20;85.64
77207;BME280;66190;50.708;7.906;2024-03-17T00:11:44;97025.81;;;6.15;85.55
77207;BME280;66190;50.708;7.906;2024-03-17T00:14:10;97030.84;;;6.18;85.25
77207;BME280;66190;50.708;7.906;2024-03-17T00:16:36;97026.00;;;6.13;85.31
77207;BME280;66190;50.708;7.906;2024-03-17T00:19:02;97031.00;;;6.16;85.13
77207;BME280;66190;50.708;7.906;2024-03-17T00:21:27;97032.84;;;6.24;84.92
77207;BME280;66190;50.708;7.906;2024-03-17T00:23:53;97021.97;;;6.17;84.90
77207;BME280;66190;50.708;7.906;2024-03-17T00:26:18;97024.81;;;6.16;85.14
77207;BME280;66190;50.708;7.906;2024-03-17T00:28:47;97018.34;;;6.18;84.88
77207;BME280;66190;50.708;7.906;2024-03-17T00:31:16;97024.81;;;6.16;84.55
77207;BME280;66190;50.708;7.906;2024-03-17T00:33:42;97018.78;;;6.14;84.52
77207;BME280;66190;50.708;7.906;2024-03-17T00:36:07;97021.16;;;6.17;84.79
77207;BME280;66190;50.708;7.906;2024-03-17T00:38:33;97015.16;;;6.15;84.68
77207;BME280;66190;50.708;7.906;2024-03-17T00:40:59;97013.97;;;6.17;84.52
77207;BME280;66190;50.708;7.906;2024-03-17T00:43:24;97011.97;;;6.19;84.54
77207;BME280;66190;50.708;7.906;2024-03-17T00:45:52;97007.81;;;6.17;84.93
77207;BME280;66190;50.708;7.906;2024-03-17T00:48:18;97002.25;;;6.10;84.83
77207;BME280;66190;50.708;7.906;2024-03-17T00:50:44;96999.22;;;6.05;85.25
77207;BME280;66190;50.708;7.906;2024-03-17T00:53:10;96998.44;;;6.13;85.02
77207;BME280;66190;50.708;7.906;2024-03-17T00:55:36;97001.06;;;6.05;84.71
77207;BME280;66190;50.708;7.906;2024-03-17T00:58:01;96998.25;;;6.06;84.88
77207;BME280;66190;50.708;7.906;2024-03-17T01:00:28;96992.06;;;5.98;85.05
77207;BME280;66190;50.708;7.906;2024-03-17T01:02:53;96986.19;;;5.94;85.09
77207;BME280;66190;50.708;7.906;2024-03-17T01:05:19;96986.31;;;5.93;85.44
77207;BME280;66190;50.708;7.906;2024-03-17T01:07:45;96987.53;;;5.98;85.24
77207;BME280;66190;50.708;7.906;2024-03-17T01:10:12;96984.81;;;5.90;84.73
77207;BME280;66190;50.708;7.906;2024-03-17T01:12:37;96986.97;;;5.87;85.41
77207;BME280;66190;50.708;7.906;2024-03-17T01:15:05;96974.78;;;5.84;84.81
77207;BME280;66190;50.708;7.906;2024-03-17T01:17:30;96967.81;;;5.57;86.24
77207;BME280;66190;50.708;7.906;2024-03-17T01:19:56;96972.81;;;5.60;85.56
77207;BME280;66190;50.708;7.906;2024-03-17T01:22:21;96968.09;;;5.54;86.20
77207;BME280;66190;50.708;7.906;2024-03-17T01:24:47;96958.91;;;5.49;86.36
77207;BME280;66190;50.708;7.906;2024-03-17T01:27:13;96967.28;;;5.54;86.13
77207;BME280;66190;50.708;7.906;2024-03-17T01:29:41;96962.72;;;5.46;86.02
77207;BME280;66190;50.708;7.906;2024-03-17T01:32:07;96961.53;;;5.41;85.94
77207;BME280;66190;50.708;7.906;2024-03-17T01:34:32;96945.34;;;5.42;87.13
77207;BME280;66190;50.708;7.906;2024-03-17T01:36:58;96941.38;;;5.46;86.61
77207;BME280;66190;50.708;7.906;2024-03-17T01:39:23;96941.72;;;5.43;86.68
77207;BME280;66190;50.708;7.906;2024-03-17T01:41:48;96937.50;;;5.41;86.55
77207;BME280;66190;50.708;7.906;2024-03-17T01:44:25;96932.56;;;5.20;87.31
77207;BME280;66190;50.708;7.906;2024-03-17T01:46:51;96936.44;;;5.26;86.62
77207;BME280;66190;50.708;7.906;2024-03-17T01:49:17;96927.06;;;5.22;86.96
77207;BME280;66190;50.708;7.906;2024-03-17T01:51:44;96921.91;;;5.20;86.62
77207;BME280;66190;50.708;7.906;2024-03-17T01:54:12;96918.88;;;5.15;86.84
77207;BME280;66190;50.708;7.906;2024-03-17T01:56:39;96918.38;;;5.20;87.54
77207;BME280;66190;50.708;7.906;2024-03-17T01:59:04;96918.03;;;5.15;87.18
77207;BME280;66190;50.708;7.906;2024-03-17T02:01:31;96924.16;;;5.07;86.83
77207;BME280;66190;50.708;7.906;2024-03-17T02:03:56;96915.41;;;4.97;87.56
77207;BME280;66190;50.708;7.906;2024-03-17T02:06:23;96918.41;;;4.94;87.23
77207;BME280;66190;50.708;7.906;2024-03-17T02:08:53;96908.94;;;5.00;87.73
77207;BME280;66190;50.708;7.906;2024-03-17T02:11:32;96920.91;;;4.96;87.76
77207;BME280;66190;50.708;7.906;2024-03-17T02:13:59;96915.41;;;4.97;86.99
77207;BME280;66190;50.708;7.906;2024-03-17T02:16:25;96916.09;;;4.99;86.61
77207;BME280;66190;50.708;7.906;2024-03-17T02:18:57;96917.47;;;5.03;87.44
77207;BME280;66190;50.708;7.906;2024-03-17T02:21:24;96914.81;;;5.03;87.11
77207;BME280;66190;50.708;7.906;2024-03-17T02:23:52;96913.97;;;5.03;86.50
77207;BME280;66190;50.708;7.906;2024-03-17T02:26:18;96904.59;;;4.99;87.29
77207;BME280;66190;50.708;7.906;2024-03-17T02:28:45;96898.44;;;4.98;86.79
77207;BME280;66190;50.708;7.906;2024-03-17T02:31:12;96904.47;;;5.00;85.42
77207;BME280;66190;50.708;7.906;2024-03-17T02:33:38;96914.28;;;5.00;85.27
77207;BME280;66190;50.708;7.906;2024-03-17T02:36:04;96909.41;;;4.95;84.93
77207;BME280;66190;50.708;7.906;2024-03-17T02:38:33;96903.06;;;4.88;85.55
77207;BME280;66190;50.708;7.906;2024-03-17T02:41:18;96908.66;;;4.85;86.26
77207;BME280;66190;50.708;7.906;2024-03-17T02:43:44;96909.31;;;4.79;85.80
77207;BME280;66190;50.708;7.906;2024-03-17T02:46:14;96900.88;;;4.66;86.13
77207;BME280;66190;50.708;7.906;2024-03-17T02:48:40;96899.06;;;4.67;86.55
77207;BME280;66190;50.708;7.906;2024-03-17T02:51:11;96900.34;;;4.62;86.92
77207;BME280;66190;50.708;7.906;2024-03-17T02:53:38;96909.19;;;4.63;86.31
77207;BME280;66190;50.708;7.906;2024-03-17T02:56:04;96900.50;;;4.61;86.88
77207;BME280;66190;50.708;7.906;2024-03-17T02:58:32;96906.38;;;4.64;86.87
77207;BME280;66190;50.708;7.906;2024-03-17T03:00:57;96900.19;;;4.64;86.79
77207;BME280;66190;50.708;7.906;2024-03-17T03:03:23;96905.31;;;4.57;86.64
77207;BME280;66190;50.708;7.906;2024-03-17T03:05:48;96908.66;;;4.59;86.95
77207;BME280;66190;50.708;7.906;2024-03-17T03:08:14;96906.09;;;4.50;87.50
77207;BME280;66190;50.708;7.906;2024-03-17T03:10:44;96908.38;;;4.45;86.49
77207;BME280;66190;50.708;7.906;2024-03-17T03:13:09;96913.03;;;4.43;87.39
77207;BME280;66190;50.708;7.906;2024-03-17T03:15:35;96906.13;;;4.32;88.35
77207;BME280;66190;50.708;7.906;2024-03-17T03:18:01;96911.66;;;4.39;90.19
77207;BME280;66190;50.708;7.906;2024-03-17T03:20:26;96909.53;;;4.42;89.58
77207;BME280;66190;50.708;7.906;2024-03-17T03:22:53;96909.97;;;4.38;89.88
77207;BME280;66190;50.708;7.906;2024-03-17T03:25:18;96903.88;;;4.28;90.58
77207;BME280;66190;50.708;7.906;2024-03-17T03:27:44;96906.78;;;4.34;90.66
77207;BME280;66190;50.708;7.906;2024-03-17T03:30:10;96911.50;;;4.40;89.15
77207;BME280;66190;50.708;7.906;2024-03-17T03:32:35;96903.44;;;4.32;88.24
77207;BME280;66190;50.708;7.906;2024-03-17T03:35:04;96910.59;;;4.32;88.55
77207;BME280;66190;50.708;7.906;2024-03-17T03:37:30;96910.81;;;4.38;89.20
77207;BME280;66190;50.708;7.906;2024-03-17T03:39:56;96901.69;;;4.41;88.60
77207;BME280;66190;50.708;7.906;2024-03-17T03:42:21;96909.97;;;4.38;87.90
77207;BME280;66190;50.708;7.906;2024-03-17T03:44:48;96909.69;;;4.23;87.83
77207;BME280;66190;50.708;7.906;2024-03-17T03:47:14;96904.53;;;4.22;87.82
77207;BME280;66190;50.708;7.906;2024-03-17T03:49:40;96909.59;;;4.15;87.82
77207;BME280;66190;50.708;7.906;2024-03-17T03:52:05;96913.56;;;4.11;87.78
77207;BME280;66190;50.708;7.906;2024-03-17T03:54:31;96910.19;;;3.92;88.99
77207;BME280;66190;50.708;7.906;2024-03-17T03:56:56;96914.69;;;3.91;88.63
77207;BME280;66190;50.708;7.906;2024-03-17T03:59:23;96914.84;;;3.90;88.35
77207;BME280;66190;50.708;7.906;2024-03-17T04:01:49;96916.53;;;3.91;88.73
77207;BME280;66190;50.708;7.906;2024-03-17T04:04:14;96913.75;;;3.83;88.01
77207;BME280;66190;50.708;7.906;2024-03-17T04:06:40;96918.06;;;3.66;88.68
77207;BME280;66190;50.708;7.906;2024-03-17T04:09:05;96920.81;;;3.74;89.43
77207;BME280;66190;50.708;7.906;2024-03-17T04:11:33;96917.31;;;3.74;89.15
77207;BME280;66190;50.708;7.906;2024-03-17T04:13:59;96915.59;;;3.82;89.13
77207;BME280;66190;50.708;7.906;2024-03-17T04:16:26;96913.47;;;3.86;89.12
77207;BME280;66190;50.708;7.906;2024-03-17T04:18:52;96912.47;;;3.87;88.64
77207;BME280;66190;50.708;7.906;2024-03-17T04:21:17;96913.97;;;3.89;89.39
77207;BME280;66190;50.708;7.906;2024-03-17T04:23:43;96917.19;;;3.93;91.33
77207;BME280;66190;50.708;7.906;2024-03-17T04:26:09;96914.69;;;4.09;91.38
77207;BME280;66190;50.708;7.906;2024-03-17T04:28:34;96911.28;;;4.16;90.96
77207;BME280;66190;50.708;7.906;2024-03-17T04:31:07;96910.59;;;4.32;90.47
77207;BME280;66190;50.708;7.906;2024-03-17T04:33:34;96914.09;;;4.32;89.86
77207;BME280;66190;50.708;7.906;2024-03-17T04:36:00;96904.34;;;4.41;88.42
77207;BME280;66190;50.708;7.906;2024-03-17T04:38:27;96918.81;;;4.38;87.84
77207;BME280;66190;50.708;7.906;2024-03-17T04:40:53;96911.13;;;4.35;87.46
77207;BME280;66190;50.708;7.906;2024-03-17T04:43:29;96912.41;;;4.31;87.31
77207;BME280;66190;50.708;7.906;2024-03-17T04:46:03;96908.31;;;4.37;88.39
77207;BME280;66190;50.708;7.906;2024-03-17T04:48:30;96909.84;;;4.39;88.08
77207;BME280;66190;50.708;7.906;2024-03-17T04:50:56;96907.81;;;4.41;87.21
77207;BME280;66190;50.708;7.906;2024-03-17T04:53:21;96897.66;;;4.37;86.62
77207;BME280;66190;50.708;7.906;2024-03-17T04:55:46;96899.94;;;4.32;86.32
77207;BME280;66190;50.708;7.906;2024-03-17T04:58:12;96899.94;;;4.32;87.79
77207;BME280;66190;50.708;7.906;2024-03-17T05:00:37;96918.06;;;4.28;87.70
77207;BME280;66190;50.708;7.906;2024-03-17T05:03:03;96906.13;;;4.32;88.56
77207;BME280;66190;50.708;7.906;2024-03-17T05:05:29;96905.94;;;4.34;88.14
77207;BME280;66190;50.708;7.906;2024-03-17T05:07:54;96905.09;;;4.33;87.28
77207;BME280;66190;50.708;7.906;2024-03-17T05:10:20;96905.59;;;4.29;86.80
77207;BME280;66190;50.708;7.906;2024-03-17T05:12:45;96898.88;;;4.25;86.77
77207;BME280;66190;50.708;7.906;2024-03-17T05:15:11;96901.00;;;4.21;87.28
77207;BME280;66190;50.708;7.906;2024-03-17T05:17:36;96902.53;;;4.24;87.68
77207;BME280;66190;50.708;7.906;2024-03-17T05:20:02;96894.69;;;4.22;87.57
77207;BME280;66190;50.708;7.906;2024-03-17T05:22:28;96894.84;;;4.21;88.54
77207;BME280;66190;50.708;7.906;2024-03-17T05:24:53;96897.28;;;4.14;89.33
77207;BME280;66190;50.708;7.906;2024-03-17T05:27:19;96899.78;;;4.16;90.40
77207;BME280;66190;50.708;7.906;2024-03-17T05:29:44;96897.50;;;4.21;90.93
77207;BME280;66190;50.708;7.906;2024-03-17T05:32:09;96886.84;;;4.21;91.32
77207;BME280;66190;50.708;7.906;2024-03-17T05:34:35;96887.59;;;4.31;90.94
77207;BME280;66190;50.708;7.906;2024-03-17T05:37:00;96887.38;;;4.24;90.94
77207;BME280;66190;50.708;7.906;2024-03-17T05:39:27;96884.94;;;4.31;90.63
77207;BME280;66190;50.708;7.906;2024-03-17T05:41:52;96879.31;;;4.34;90.67
77207;BME280;66190;50.708;7.906;2024-03-17T05:44:18;96881.28;;;4.32;90.56
77207;BME280;66190;50.708;7.906;2024-03-17T05:46:43;96882.94;;;4.33;91.17
77207;BME280;66190;50.708;7.906;2024-03-17T05:49:09;96889.75;;;4.27;90.85
77207;BME280;66190;50.708;7.906;2024-03-17T05:51:35;96887.53;;;4.40;90.52
77207;BME280;66190;50.708;7.906;2024-03-17T05:54:00;96888.22;;;4.42;90.57
77207;BME280;66190;50.708;7.906;2024-03-17T05:56:26;96897.19;;;4.41;90.22
77207;BME280;66190;50.708;7.906;2024-03-17T05:58:51;96889.59;;;4.46;90.16
77207;BME280;66190;50.708;7.906;2024-03-17T06:01:17;96891.72;;;4.43;90.51
77207;BME280;66190;50.708;7.906;2024-03-17T06:03:42;96890.13;;;4.50;89.99
77207;BME280;66190;50.708;7.906;2024-03-17T06:06:08;96895.81;;;4.55;89.68
77207;BME280;66190;50.708;7.906;2024-03-17T06:08:35;96892.31;;;4.54;89.68
77207;BME280;66190;50.708;7.906;2024-03-17T06:11:00;96885.81;;;4.57;89.72
77207;BME280;66190;50.708;7.906;2024-03-17T06:13:28;96887.34;;;4.59;89.29
77207;BME280;66190;50.708;7.906;2024-03-17T06:15:54;96888.06;;;4.70;89.34
77207;BME280;66190;50.708;7.906;2024-03-17T06:18:20;96881.81;;;4.79;88.46
77207;BME280;66190;50.708;7.906;2024-03-17T06:20:46;96875.53;;;4.88;88.20
77207;BME280;66190;50.708;7.906;2024-03-17T06:23:13;96879.50;;;4.84;88.01
77207;BME280;66190;50.708;7.906;2024-03-17T06:25:43;96877.53;;;4.86;87.79
77207;BME280;66190;50.708;7.906;2024-03-17T06:28:10;96883.22;;;4.91;87.78
77207;BME280;66190;50.708;7.906;2024-03-17T06:30:41;96877.78;;;5.00;87.39
77207;BME280;66190;50.708;7.906;2024-03-17T06:33:08;96877.81;;;5.08;87.31
77207;BME280;66190;50.708;7.906;2024-03-17T06:35:36;96884.81;;;5.09;87.13
77207;BME280;66190;50.708;7.906;2024-03-17T06:38:02;96882.53;;;5.14;87.11
77207;BME280;66190;50.708;7.906;2024-03-17T06:40:27;96880.69;;;5.15;86.78
77207;BME280;66190;50.708;7.906;2024-03-17T06:42:53;96880.75;;;5.23;86.60
77207;BME280;66190;50.708;7.906;2024-03-17T06:45:19;96883.28;;;5.32;87.06
77207;BME280;66190;50.708;7.906;2024-03-17T06:47:46;96877.94;;;5.32;87.12
77207;BME280;66190;50.708;7.906;2024-03-17T06:50:11;96871.66;;;5.49;87.13
77207;BME280;66190;50.708;7.906;2024-03-17T06:52:37;96879.22;;;5.54;86.82
77207;BME280;66190;50.708;7.906;2024-03-17T06:55:03;96875.03;;;5.59;87.47
77207;BME280;66190;50.708;7.906;2024-03-17T06:57:29;96872.41;;;5.67;87.20
77207;BME280;66190;50.708;7.906;2024-03-17T06:59:54;96869.56;;;5.69;87.60
77207;BME280;66190;50.708;7.906;2024-03-17T07:02:19;96872.84;;;5.89;87.06
77207;BME280;66190;50.708;7.906;2024-03-17T07:04:46;96867.81;;;5.86;87.30
77207;BME280;66190;50.708;7.906;2024-03-17T07:07:12;96865.50;;;5.99;86.42
77207;BME280;66190;50.708;7.906;2024-03-17T07:09:38;96860.00;;;6.00;86.62
77207;BME280;66190;50.708;7.906;2024-03-17T07:12:08;96852.84;;;6.09;86.22
77207;BME280;66190;50.708;7.906;2024-03-17T07:14:34;96856.03;;;6.20;86.33
77207;BME280;66190;50.708;7.906;2024-03-17T07:16:59;96857.53;;;6.23;86.06
77207;BME280;66190;50.708;7.906;2024-03-17T07:19:25;96858.84;;;6.19;86.48
77207;BME280;66190;50.708;7.906;2024-03-17T07:21:50;96857.03;;;6.35;86.47
77207;BME280;66190;50.708;7.906;2024-03-17T07:24:16;96866.41;;;6.39;85.87
77207;BME280;66190;50.708;7.906;2024-03-17T07:26:41;96874.25;;;6.41;85.90
77207;BME280;66190;50.708;7.906;2024-03-17T07:29:07;96873.91;;;6.60;85.54
77207;BME280;66190;50.708;7.906;2024-03-17T07:31:33;96865.03;;;6.67;85.21
77207;BME280;66190;50.708;7.906;2024-03-17T07:33:59;96853.84;;;6.64;84.66
77207;BME280;66190;50.708;7.906;2024-03-17T07:36:24;96857.00;;;6.67;84.04
77207;BME280;66190;50.708;7.906;2024-03-17T07:38:49;96857.19;;;6.66;83.38
77207;BME280;66190;50.708;7.906;2024-03-17T07:41:16;96858.16;;;6.89;82.91
77207;BME280;66190;50.708;7.906;2024-03-17T07:43:41;96862.50;;;6.98;82.11
77207;BME280;66190;50.708;7.906;2024-03-17T07:46:08;96866.00;;;6.90;81.39
77207;BME280;66190;50.708;7.906;2024-03-17T07:48:38;96875.19;;;6.96;80.12
77207;BME280;66190;50.708;7.906;2024-03-17T07:51:06;96865.34;;;6.97;79.59
77207;BME280;66190;50.708;7.906;2024-03-17T07:53:36;96861.63;;;7.06;77.88
77207;BME280;66190;50.708;7.906;2024-03-17T07:56:09;96862.09;;;7.17;76.90
77207;BME280;66190;50.708;7.906;2024-03-17T07:58:37;96858.38;;;7.34;76.83
77207;BME280;66190;50.708;7.906;2024-03-17T08:01:12;96843.47;;;7.40;74.79
77207;BME280;66190;50.708;7.906;2024-03-17T08:03:39;96837.94;;;7.33;75.21
77207;BME280;66190;50.708;7.906;2024-03-17T08:06:06;96848.22;;;7.52;74.31
77207;BME280;66190;50.708;7.906;2024-03-17T08:08:33;96848.34;;;8.28;76.04
77207;BME280;66190;50.708;7.906;2024-03-17T08:10:59;96843.66;;;8.22;73.05
77207;BME280;66190;50.708;7.906;2024-03-17T08:13:25;96849.94;;;7.84;72.09
77207;BME280;66190;50.708;7.906;2024-03-17T08:15:57;96842.75;;;8.07;72.47
77207;BME280;66190;50.708;7.906;2024-03-17T08:18:22;96858.44;;;7.87;72.04
77207;BME280;66190;50.708;7.906;2024-03-17T08:20:48;96859.59;;;7.93;72.89
77207;BME280;66190;50.708;7.906;2024-03-17T08:23:13;96843.50;;;7.93;71.90
77207;BME280;66190;50.708;7.906;2024-03-17T08:25:39;96855.00;;;8.01;72.36
77207;BME280;66190;50.708;7.906;2024-03-17T08:28:05;96858.34;;;8.03;73.29
77207;BME280;66190;50.708;7.906;2024-03-17T08:30:31;96867.03;;;8.36;72.67
77207;BME280;66190;50.708;7.906;2024-03-17T08:32:57;96872.66;;;8.49;71.78
77207;BME280;66190;50.708;7.906;2024-03-17T08:35:23;96869.31;;;8.25;70.40
77207;BME280;66190;50.708;7.906;2024-03-17T08:37:48;96867.41;;;8.33;70.84
77207;BME280;66190;50.708;7.906;2024-03-17T08:40:14;96862.09;;;8.48;70.93
77207;BME280;66190;50.708;7.906;2024-03-17T08:42:39;96880.69;;;8.49;70.77
77207;BME280;66190;50.708;7.906;2024-03-17T08:45:06;96871.72;;;8.57;70.78
77207;BME280;66190;50.708;7.906;2024-03-17T08:47:31;96874.47;;;8.26;69.68
77207;BME280;66190;50.708;7.906;2024-03-17T08:49:57;96872.41;;;8.36;69.30
77207;BME280;66190;50.708;7.906;2024-03-17T08:52:23;96876.50;;;8.47;70.29
77207;BME280;66190;50.708;7.906;2024-03-17T08:54:49;96875.84;;;8.45;70.32
77207;BME280;66190;50.708;7.906;2024-03-17T08:57:16;96878.88;;;8.64;69.23
77207;BME280;66190;50.708;7.906;2024-03-17T08:59:42;96877.47;;;8.54;68.90
77207;BME280;66190;50.708;7.906;2024-03-17T09:02:13;96868.84;;;8.58;69.02
77207;BME280;66190;50.708;7.906;2024-03-17T09:04:40;96865.63;;;8.85;68.86
77207;BME280;66190;50.708;7.906;2024-03-17T09:07:05;96861.19;;;8.92;67.88
77207;BME280;66190;50.708;7.906;2024-03-17T09:09:31;96862.84;;;8.79;67.93
77207;BME280;66190;50.708;7.906;2024-03-17T09:11:57;96852.09;;;8.79;68.21
77207;BME280;66190;50.708;7.906;2024-03-17T09:14:22;96854.41;;;8.82;68.21
77207;BME280;66190;50.708;7.906;2024-03-17T09:16:48;96857.00;;;8.75;68.18
77207;BME280;66190;50.708;7.906;2024-03-17T09:19:13;96853.44;;;8.97;67.79
77207;BME280;66190;50.708;7.906;2024-03-17T09:21:39;96865.41;;;8.72;67.55
77207;BME280;66190;50.708;7.906;2024-03-17T09:24:08;96858.66;;;8.76;67.99
77207;BME280;66190;50.708;7.906;2024-03-17T09:26:34;96858.13;;;8.95;68.25
77207;BME280;66190;50.708;7.906;2024-03-17T09:29:03;96866.00;;;8.82;68.15
77207;BME280;66190;50.708;7.906;2024-03-17T09:31:28;96856.75;;;9.14;68.66
77207;BME280;66190;50.708;7.906;2024-03-17T09:33:53;96846.78;;;9.08;68.08
77207;BME280;66190;50.708;7.906;2024-03-17T09:36:19;96838.53;;;9.09;67.74
77207;BME280;66190;50.708;7.906;2024-03-17T09:38:45;96828.09;;;9.29;67.24
77207;BME280;66190;50.708;7.906;2024-03-17T09:41:30;96830.22;;;9.34;67.36
77207;BME280;66190;50.708;7.906;2024-03-17T09:43:58;96834.75;;;9.62;67.19
77207;BME280;66190;50.708;7.906;2024-03-17T09:46:25;96834.16;;;9.67;66.09
77207;BME280;66190;50.708;7.906;2024-03-17T09:48:51;96839.06;;;9.63;66.54
77207;BME280;66190;50.708;7.906;2024-03-17T09:51:26;96840.19;;;9.54;65.98
77207;BME280;66190;50.708;7.906;2024-03-17T09:53:52;96840.75;;;9.64;66.15
77207;BME280;66190;50.708;7.906;2024-03-17T09:56:21;96841.50;;;9.73;66.99
77207;BME280;66190;50.708;7.906;2024-03-17T09:58:51;96837.38;;;9.77;65.82
77207;BME280;66190;50.708;7.906;2024-03-17T10:01:17;96843.34;;;9.72;65.46
77207;BME280;66190;50.708;7.906;2024-03-17T10:06:15;96845.28;;;9.64;65.68
77207;BME280;66190;50.708;7.906;2024-03-17T10:11:17;96838.09;;;9.85;66.70
77207;BME280;66190;50.708;7.906;2024-03-17T10:13:59;96840.91;;;9.77;65.32
77207;BME280;66190;50.708;7.906;2024-03-17T10:16:26;96843.19;;;9.95;64.29
77207;BME280;66190;50.708;7.906;2024-03-17T10:19:25;96844.50;;;9.84;64.03
77207;BME280;66190;50.708;7.906;2024-03-17T10:21:58;96850.06;;;10.33;64.18
77207;BME280;66190;50.708;7.906;2024-03-17T10:24:26;96846.72;;;10.73;63.34
77207;BME280;66190;50.708;7.906;2024-03-17T10:26:54;96858.78;;;10.56;63.23
77207;BME280;66190;50.708;7.906;2024-03-17T10:31:48;96847.22;;;10.62;63.06
77207;BME280;66190;50.708;7.906;2024-03-17T10:34:16;96849.66;;;10.78;62.60
77207;BME280;66190;50.708;7.906;2024-03-17T10:36:44;96861.31;;;10.43;62.09
77207;BME280;66190;50.708;7.906;2024-03-17T10:39:25;96856.97;;;10.63;61.29
77207;BME280;66190;50.708;7.906;2024-03-17T10:42:00;96858.28;;;10.74;62.47
77207;BME280;66190;50.708;7.906;2024-03-17T10:44:34;96858.25;;;10.46;63.14
77207;BME280;66190;50.708;7.906;2024-03-17T10:47:01;96852.69;;;10.48;63.45
77207;BME280;66190;50.708;7.906;2024-03-17T10:49:31;96848.97;;;10.49;62.60
77207;BME280;66190;50.708;7.906;2024-03-17T10:52:03;96851.38;;;10.86;63.14
77207;BME280;66190;50.708;7.906;2024-03-17T10:54:30;96854.34;;;10.70;62.89
77207;BME280;66190;50.708;7.906;2024-03-17T10:57:01;96855.50;;;10.40;63.25
77207;BME280;66190;50.708;7.906;2024-03-17T10:59:40;96859.28;;;10.45;63.81
77207;BME280;66190;50.708;7.906;2024-03-17T11:02:28;96847.72;;;10.51;63.08
77207;BME280;66190;50.708;7.906;2024-03-17T11:05:05;96838.47;;;10.54;64.27
77207;BME280;66190;50.708;7.906;2024-03-17T11:07:34;96845.13;;;10.37;64.72
77207;BME280;66190;50.708;7.906;2024-03-17T11:10:02;96841.66;;;10.43;64.59
77207;BME280;66190;50.708;7.906;2024-03-17T11:12:48;96835.31;;;10.50;64.86
77207;BME280;66190;50.708;7.906;2024-03-17T11:17:49;96842.94;;;10.68;64.32
77207;BME280;66190;50.708;7.906;2024-03-17T11:20:22;96843.91;;;10.88;64.51
77207;BME280;66190;50.708;7.906;2024-03-17T11:22:53;96838.41;;;11.23;64.54
77207;BME280;66190;50.708;7.906;2024-03-17T11:27:51;96844.59;;;10.96;63.84
77207;BME280;66190;50.708;7.906;2024-03-17T11:46:42;96835.78;;;11.36;62.72
77207;BME280;66190;50.708;7.906;2024-03-17T11:49:24;96846.00;;;11.48;63.55
77207;BME280;66190;50.708;7.906;2024-03-17T11:51:51;96846.81;;;11.14;63.21
77207;BME280;66190;50.708;7.906;2024-03-17T11:54:25;96840.44;;;11.21;63.77
77207;BME280;66190;50.708;7.906;2024-03-17T11:56:53;96843.63;;;11.04;63.91
77207;BME280;66190;50.708;7.906;2024-03-17T11:59:19;96850.78;;;11.18;64.60
77207;BME280;66190;50.708;7.906;2024-03-17T12:01:49;96840.81;;;11.12;64.95
77207;BME280;66190;50.708;7.906;2024-03-17T12:04:16;96837.00;;;11.27;64.58
77207;BME280;66190;50.708;7.906;2024-03-17T12:06:46;96825.06;;;10.88;65.68
77207;BME280;66190;50.708;7.906;2024-03-17T12:11:50;96813.34;;;11.64;63.55
77207;BME280;66190;50.708;7.906;2024-03-17T12:14:19;96815.56;;;12.01;64.04
77207;BME280;66190;50.708;7.906;2024-03-17T12:16:49;96818.47;;;11.99;62.16
77207;BME280;66190;50.708;7.906;2024-03-17T12:19:16;96828.13;;;12.21;62.65
77207;BME280;66190;50.708;7.906;2024-03-17T12:21:58;96814.44;;;12.36;61.54
77207;BME280;66190;50.708;7.906;2024-03-17T12:24:26;96820.69;;;12.76;62.49
77207;BME280;66190;50.708;7.906;2024-03-17T12:26:53;96814.66;;;12.74;60.25
77207;BME280;66190;50.708;7.906;2024-03-17T12:31:59;96803.06;;;13.06;59.79
77207;BME280;66190;50.708;7.906;2024-03-17T12:34:27;96795.41;;;13.03;58.80
77207;BME280;66190;50.708;7.906;2024-03-17T12:36:53;96787.88;;;13.24;59.02
77207;BME280;66190;50.708;7.906;2024-03-17T12:39:21;96791.22;;;12.94;58.11
77207;BME280;66190;50.708;7.906;2024-03-17T12:42:12;96787.47;;;13.14;57.47
77207;BME280;66190;50.708;7.906;2024-03-17T12:44:40;96775.53;;;13.54;59.53
77207;BME280;66190;50.708;7.906;2024-03-17T12:47:15;96778.09;;;13.23;58.45
77207;BME280;66190;50.708;7.906;2024-03-17T12:49:45;96771.69;;;12.79;58.87
77207;BME280;66190;50.708;7.906;2024-03-17T12:52:31;96771.28;;;12.69;58.86
77207;BME280;66190;50.708;7.906;2024-03-17T12:57:44;96762.53;;;12.14;60.34
77207;BME280;66190;50.708;7.906;2024-03-17T13:00:29;96758.19;;;12.66;60.50
77207;BME280;66190;50.708;7.906;2024-03-17T13:02:58;96758.84;;;12.61;59.83
77207;BME280;66190;50.708;7.906;2024-03-17T13:05:24;96760.25;;;12.31;59.34
77207;BME280;66190;50.708;7.906;2024-03-17T13:07:50;96760.25;;;12.64;59.76
77207;BME280;66190;50.708;7.906;2024-03-17T13:10:17;96758.19;;;12.39;59.62
77207;BME280;66190;50.708;7.906;2024-03-17T13:12:43;96750.47;;;12.23;59.60
77207;BME280;66190;50.708;7.906;2024-03-17T13:15:15;96752.59;;;12.61;58.79
77207;BME280;66190;50.708;7.906;2024-03-17T13:17:44;96739.91;;;12.68;58.56
77207;BME280;66190;50.708;7.906;2024-03-17T13:20:16;96738.25;;;12.60;58.93
77207;BME280;66190;50.708;7.906;2024-03-17T13:22:42;96733.06;;;12.58;58.63
77207;BME280;66190;50.708;7.906;2024-03-17T13:25:15;96736.38;;;12.74;58.21
77207;BME280;66190;50.708;7.906;2024-03-17T13:27:42;96726.19;;;12.95;57.21
77207;BME280;66190;50.708;7.906;2024-03-17T13:30:08;96728.28;;;12.61;57.74
77207;BME280;66190;50.708;7.906;2024-03-17T13:32:35;96726.81;;;12.91;56.69
77207;BME280;66190;50.708;7.906;2024-03-17T13:35:01;96720.13;;;13.00;57.92
77207;BME280;66190;50.708;7.906;2024-03-17T13:37:26;96721.81;;;13.01;57.29
77207;BME280;66190;50.708;7.906;2024-03-17T13:39:52;96716.34;;;13.33;57.37
77207;BME280;66190;50.708;7.906;2024-03-17T13:42:17;96714.41;;;13.47;57.41
77207;BME280;66190;50.708;7.906;2024-03-17T13:44:43;96705.84;;;13.56;56.85
77207;BME280;66190;50.708;7.906;2024-03-17T13:47:08;96714.50;;;13.21;55.24